Time;durP1;ratioP1;P1;durP2;ratioP2;P2;SDS_P1;SDS_P2;PMS_P1;PMS_P2;Temp;Humidity;BMP_temperature;BMP_pressure;BME280_temperature;BME280_humidity;BME280_pressure;Samples;Min_cycle;Max_cycle;Signal;HPM_P1;HPM_P2
2023/07/21 00:01:09;;;;;;;;;;;13.60;99.90;;;;;;5094255;28;20151;-67
2023/07/21 00:03:38;;;;;;;2.47;1.95;;;13.60;99.90;;;;;;5090527;28;19981;-67
2023/07/21 00:06:06;;;;;;;1.75;1.60;;;13.60;99.90;;;;;;5079380;28;20539;-66
2023/07/21 00:08:32;;;;;;;7.15;1.98;;;13.60;99.90;;;;;;5082384;28;20052;-68
2023/07/21 00:10:58;;;;;;;4.00;1.95;;;13.50;99.90;;;;;;5079872;28;20047;-67
2023/07/21 00:13:25;;;;;;;3.88;2.45;;;13.50;99.90;;;;;;5094011;28;20047;-67
2023/07/21 00:15:52;;;;;;;3.88;1.75;;;13.50;99.90;;;;;;5098275;28;20051;-67
2023/07/21 00:18:19;;;;;;;4.18;2.30;;;13.50;99.90;;;;;;5084482;28;20403;-69
2023/07/21 00:20:45;;;;;;;4.10;2.30;;;13.50;99.90;;;;;;5065619;28;20531;-68
2023/07/21 00:23:12;;;;;;;2.35;1.92;;;13.50;99.90;;;;;;5067171;28;20040;-69
2023/07/21 00:25:39;;;;;;;7.05;2.35;;;13.50;99.90;;;;;;5084754;28;20048;-68
2023/07/21 00:28:05;;;;;;;3.70;1.98;;;13.50;99.90;;;;;;5070499;28;20048;-68
2023/07/21 00:30:31;;;;;;;2.42;2.15;;;13.50;99.90;;;;;;5062242;28;20540;-69
2023/07/21 00:32:57;;;;;;;;;;;13.50;99.90;;;;;;5073656;28;20110;-66
2023/07/21 00:35:23;;;;;;;2.78;2.35;;;13.50;99.90;;;;;;5079895;28;20518;-65
2023/07/21 00:37:48;;;;;;;;;;;13.40;99.90;;;;;;5071056;28;20120;-67
2023/07/21 00:40:18;;;;;;;2.15;1.90;;;13.40;99.90;;;;;;5068988;28;20657;-67
2023/07/21 00:42:45;;;;;;;4.22;2.28;;;13.40;99.90;;;;;;5065671;28;20052;-66
2023/07/21 00:45:14;;;;;;;7.28;3.13;;;13.50;99.90;;;;;;5073102;28;20048;-68
2023/07/21 00:47:41;;;;;;;2.53;2.25;;;13.50;99.90;;;;;;5065199;28;20075;-66
2023/07/21 00:50:08;;;;;;;3.75;2.38;;;13.50;99.90;;;;;;5078776;28;20097;-67
2023/07/21 00:52:34;;;;;;;3.60;3.20;;;13.40;99.90;;;;;;5080114;28;20045;-66
2023/07/21 00:55:00;;;;;;;4.85;3.00;;;13.40;99.90;;;;;;5076510;28;20135;-67
2023/07/21 00:57:26;;;;;;;3.03;2.72;;;13.40;99.90;;;;;;5072178;28;20459;-68
2023/07/21 00:59:52;;;;;;;;;;;13.50;99.90;;;;;;5074272;28;20071;-65
2023/07/21 01:02:18;;;;;;;2.70;2.50;;;13.50;99.90;;;;;;5065822;28;20372;-67
2023/07/21 01:04:44;;;;;;;3.03;2.72;;;13.50;99.90;;;;;;5065353;28;20067;-67
2023/07/21 01:07:11;;;;;;;3.40;2.83;;;13.50;99.90;;;;;;5073563;28;20041;-66
2023/07/21 01:09:39;;;;;;;3.55;2.75;;;13.50;99.90;;;;;;5075907;28;20522;-67
2023/07/21 01:12:06;;;;;;;6.85;3.40;;;13.50;99.90;;;;;;5064831;28;20044;-67
2023/07/21 01:14:34;;;;;;;4.00;3.20;;;13.40;99.90;;;;;;5075823;28;20537;-66
2023/07/21 01:17:01;;;;;;;3.30;2.58;;;13.30;99.90;;;;;;5087944;28;20043;-68
2023/07/21 01:19:30;;;;;;;4.57;3.22;;;13.30;99.90;;;;;;5078048;28;20128;-70
2023/07/21 01:22:08;;;;;;;3.28;2.97;;;13.40;99.90;;;;;;5063949;28;20058;-67
2023/07/21 01:24:42;;;;;;;4.38;3.25;;;13.40;99.90;;;;;;5073919;28;20040;-68
2023/07/21 01:27:10;;;;;;;4.65;3.63;;;13.40;99.90;;;;;;5065093;28;20675;-67
2023/07/21 01:29:39;;;;;;;4.30;3.72;;;13.30;99.90;;;;;;5064530;28;20055;-67
2023/07/21 01:32:08;;;;;;;5.75;3.00;;;13.20;99.90;;;;;;5064600;28;20085;-69
2023/07/21 01:34:36;;;;;;;6.13;2.97;;;13.20;99.90;;;;;;5066020;28;20045;-67
2023/07/21 01:37:03;;;;;;;4.25;2.88;;;13.30;99.90;;;;;;5081739;28;20071;-66
2023/07/21 01:39:30;;;;;;;3.30;2.88;;;13.30;99.90;;;;;;5074396;28;20488;-67
2023/07/21 01:41:56;;;;;;;3.55;2.85;;;13.30;99.90;;;;;;5067441;28;20075;-66
2023/07/21 01:44:22;;;;;;;6.80;3.67;;;13.30;99.90;;;;;;5085147;28;20138;-67
2023/07/21 01:46:49;;;;;;;6.85;3.55;;;13.30;99.90;;;;;;5085031;28;20127;-66
2023/07/21 01:49:15;;;;;;;3.88;3.13;;;13.30;99.90;;;;;;5068079;28;20040;-67
2023/07/21 01:51:42;;;;;;;3.20;2.83;;;13.30;99.90;;;;;;5069517;28;20044;-68
2023/07/21 01:54:18;;;;;;;3.38;2.97;;;13.30;99.90;;;;;;5074600;28;20517;-67
2023/07/21 01:56:57;;;;;;;2.83;2.60;;;13.30;99.90;;;;;;5072141;28;20100;-69
2023/07/21 01:59:24;;;;;;;4.50;3.30;;;13.30;99.90;;;;;;5064083;28;20036;-68
2023/07/21 02:01:54;;;;;;;3.90;2.97;;;13.30;99.90;;;;;;5075388;28;20880;-67
2023/07/21 02:04:20;;;;;;;3.60;3.20;;;13.40;99.90;;;;;;5075428;28;20125;-69
2023/07/21 02:06:47;;;;;;;4.75;3.35;;;13.40;99.90;;;;;;5064890;28;20572;-70
2023/07/21 02:09:13;;;;;;;5.18;3.40;;;13.40;99.90;;;;;;5072405;28;20044;-68
2023/07/21 02:11:40;;;;;;;3.97;3.55;;;13.40;99.90;;;;;;5067165;28;20065;-70
2023/07/21 02:14:07;;;;;;;5.20;3.40;;;13.30;99.90;;;;;;5084658;28;20047;-68
2023/07/21 02:16:32;;;;;;;3.40;3.10;;;13.20;99.90;;;;;;5072416;28;20129;-68
2023/07/21 02:18:58;;;;;;;;;;;13.20;99.90;;;;;;5068945;28;20725;-68
2023/07/21 02:21:24;;;;;;;5.00;3.00;;;13.30;99.90;;;;;;5070458;28;19959;-66
2023/07/21 02:23:49;;;;;;;;;;;13.30;99.90;;;;;;5065462;28;20056;-68
2023/07/21 02:26:15;;;;;;;8.18;2.30;;;13.30;99.90;;;;;;5078388;28;19924;-67
2023/07/21 02:28:41;;;;;;;;;;;13.30;99.90;;;;;;5079219;28;20055;-67
2023/07/21 02:31:09;;;;;;;3.78;3.47;;;13.30;99.90;;;;;;5085058;28;19919;-68
2023/07/21 02:33:35;;;;;;;3.97;3.22;;;13.20;99.90;;;;;;5073223;28;20047;-68
2023/07/21 02:36:03;;;;;;;4.13;3.00;;;13.20;99.90;;;;;;5077047;28;20052;-71
2023/07/21 02:38:29;;;;;;;3.30;2.65;;;13.20;99.90;;;;;;5062137;28;20105;-71
2023/07/21 02:40:55;;;;;;;;;;;13.20;99.90;;;;;;5066074;28;20503;-67
2023/07/21 02:43:23;;;;;;;2.80;2.50;;;13.20;99.90;;;;;;5080828;28;20299;-67
2023/07/21 02:45:53;;;;;;;2.65;2.45;;;13.10;99.90;;;;;;5078082;28;20051;-70
2023/07/21 02:48:20;;;;;;;7.82;3.13;;;13.20;99.90;;;;;;5084168;28;20043;-69
2023/07/21 02:50:51;;;;;;;4.40;3.30;;;13.20;99.90;;;;;;5081539;28;20032;-68
2023/07/21 02:53:18;;;;;;;3.72;3.13;;;13.20;99.90;;;;;;5073534;28;20040;-67
2023/07/21 02:55:45;;;;;;;5.22;2.65;;;13.30;99.90;;;;;;5075613;28;20447;-67
2023/07/21 02:58:13;;;;;;;2.70;2.40;;;13.20;99.90;;;;;;5078643;28;20044;-68
2023/07/21 03:00:39;;;;;;;4.65;3.00;;;13.20;99.90;;;;;;5071926;28;20044;-69
2023/07/21 03:03:06;;;;;;;3.72;3.08;;;13.30;99.90;;;;;;5072948;28;20123;-68
2023/07/21 03:05:33;;;;;;;3.20;2.90;;;13.30;99.90;;;;;;5073892;28;20043;-70
2023/07/21 03:08:00;;;;;;;4.65;2.92;;;13.20;99.90;;;;;;5062671;28;20105;-69
2023/07/21 03:10:25;;;;;;;3.38;2.92;;;13.20;99.90;;;;;;5077744;28;20044;-68
2023/07/21 03:12:51;;;;;;;;;;;13.20;99.90;;;;;;5066802;28;20044;-70
2023/07/21 03:15:17;;;;;;;2.85;2.30;;;13.20;99.90;;;;;;5072803;28;19931;-70
2023/07/21 03:17:44;;;;;;;;;;;13.10;99.90;;;;;;5081904;28;20113;-68
2023/07/21 03:20:12;;;;;;;2.67;2.38;;;13.10;99.90;;;;;;5080908;28;19927;-68
2023/07/21 03:22:39;;;;;;;7.35;2.00;;;13.10;99.90;;;;;;5084187;28;20082;-69
2023/07/21 03:25:06;;;;;;;;;;;13.10;99.90;;;;;;5077768;28;20090;-67
2023/07/21 03:27:35;;;;;;;;;;;13.20;99.90;;;;;;5078829;28;19921;-69
2023/07/21 03:30:02;;;;;;;2.85;2.17;;;13.20;99.90;;;;;;5072132;28;19931;-69
2023/07/21 03:32:28;;;;;;;3.70;2.33;;;13.20;99.90;;;;;;5062974;28;20086;-69
2023/07/21 03:34:54;;;;;;;;;;;13.20;99.90;;;;;;5065164;28;20461;-66
2023/07/21 03:37:26;;;;;;;3.87;2.07;;;13.20;99.90;;;;;;5074480;28;19926;-69
2023/07/21 03:39:54;;;;;;;2.33;2.10;;;13.20;99.90;;;;;;5063091;28;20048;-67
2023/07/21 03:42:20;;;;;;;4.85;2.00;;;13.20;99.90;;;;;;5079387;28;20765;-67
2023/07/21 03:44:49;;;;;;;;;;;13.20;99.90;;;;;;5079619;28;20040;-67
2023/07/21 03:47:19;;;;;;;3.08;1.90;;;13.20;99.90;;;;;;5077039;28;19924;-68
2023/07/21 03:49:46;;;;;;;5.13;2.13;;;13.10;99.90;;;;;;5071294;28;20495;-67
2023/07/21 03:52:13;;;;;;;4.18;2.00;;;13.10;99.90;;;;;;5082182;28;20048;-67
2023/07/21 03:54:39;;;;;;;3.65;2.00;;;13.10;99.90;;;;;;5077788;28;20101;-67
2023/07/21 03:57:04;;;;;;;;;;;13.20;99.90;;;;;;5086243;28;20036;-68
2023/07/21 03:59:30;;;;;;;2.75;1.70;;;13.20;99.90;;;;;;5074756;28;20496;-68
2023/07/21 04:01:56;;;;;;;;;;;13.20;99.90;;;;;;5084289;28;20036;-67
2023/07/21 04:04:22;;;;;;;4.05;1.73;;;13.30;99.90;;;;;;5066074;28;19920;-69
2023/07/21 04:06:47;;;;;;;;;;;13.30;99.90;;;;;;5074861;28;20055;-68
2023/07/21 04:09:13;;;;;;;1.92;1.55;;;13.30;99.90;;;;;;5074568;28;20011;-68
2023/07/21 04:11:39;;;;;;;;;;;13.30;99.90;;;;;;5074545;28;20044;-66
2023/07/21 04:14:05;;;;;;;4.95;1.77;;;13.30;99.90;;;;;;5065487;28;19923;-66
2023/07/21 04:16:30;;;;;;;2.25;1.67;;;13.40;99.90;;;;;;5067393;28;20044;-67
2023/07/21 04:18:56;;;;;;;;;;;13.40;99.90;;;;;;5084953;28;20063;-68
2023/07/21 04:21:22;;;;;;;3.25;1.70;;;13.40;99.90;;;;;;5075818;28;19927;-68
2023/07/21 04:23:48;;;;;;;3.40;1.75;;;13.40;99.90;;;;;;5068921;28;20079;-68
2023/07/21 04:26:14;;;;;;;;;;;13.40;99.90;;;;;;5066388;28;20665;-69
2023/07/21 04:28:41;;;;;;;2.08;1.50;;;13.40;99.90;;;;;;5074261;28;19920;-68
2023/07/21 04:31:08;;;;;;;6.28;1.77;;;13.40;99.90;;;;;;5064084;28;20434;-68
2023/07/21 04:33:35;;;;;;;4.07;1.80;;;13.40;99.90;;;;;;5078947;28;20051;-69
2023/07/21 04:36:02;;;;;;;5.90;1.52;;;13.40;99.90;;;;;;5087636;28;20047;-67
2023/07/21 04:38:28;;;;;;;2.95;1.55;;;13.50;99.90;;;;;;5076174;28;20127;-68
2023/07/21 04:40:54;;;;;;;;;;;13.50;99.90;;;;;;5072754;28;20060;-67
2023/07/21 04:43:20;;;;;;;6.18;2.00;;;13.50;99.90;;;;;;5082633;28;19916;-67
2023/07/21 04:45:46;;;;;;;3.28;1.75;;;13.60;99.90;;;;;;5087834;28;20542;-68
2023/07/21 04:48:11;;;;;;;;;;;13.50;99.90;;;;;;5080031;28;20093;-68
2023/07/21 04:50:37;;;;;;;4.22;2.17;;;13.50;99.90;;;;;;5065373;28;19914;-68
2023/07/21 04:53:03;;;;;;;4.07;2.15;;;13.60;99.90;;;;;;5068587;28;20090;-67
2023/07/21 04:55:29;;;;;;;;;;;13.60;99.90;;;;;;5067530;28;20041;-68
2023/07/21 04:57:54;;;;;;;4.30;1.95;;;13.60;99.90;;;;;;5073433;28;19990;-67
2023/07/21 05:00:21;;;;;;;;;;;13.70;99.90;;;;;;5068933;28;20459;-68
2023/07/21 05:02:47;;;;;;;1.88;1.30;;;13.70;99.90;;;;;;5068421;28;19923;-68
2023/07/21 05:05:12;;;;;;;4.72;1.85;;;13.80;99.90;;;;;;5086551;28;20039;-69
2023/07/21 05:07:38;;;;;;;2.47;1.85;;;13.80;99.90;;;;;;5085323;28;20058;-68
2023/07/21 05:10:04;;;;;;;2.15;1.52;;;13.80;99.90;;;;;;5065609;28;20055;-66
2023/07/21 05:12:31;;;;;;;5.00;1.55;;;13.80;99.90;;;;;;5077864;28;20415;-64
2023/07/21 05:14:57;;;;;;;;;;;13.90;99.90;;;;;;5072048;28;20048;-66
2023/07/21 05:17:23;;;;;;;4.65;1.40;;;13.90;99.90;;;;;;5069062;28;20319;-67
2023/07/21 05:19:48;;;;;;;;;;;13.90;99.90;;;;;;5068141;28;20119;-69
2023/07/21 05:22:14;;;;;;;3.53;1.73;;;14.00;99.90;;;;;;5074042;28;19920;-68
2023/07/21 05:24:40;;;;;;;2.35;1.70;;;14.00;99.90;;;;;;5070072;28;20384;-65
2023/07/21 05:27:06;;;;;;;3.58;2.00;;;14.10;99.90;;;;;;5080924;28;20051;-67
2023/07/21 05:29:33;;;;;;;5.38;1.73;;;14.10;99.90;;;;;;5069173;28;20043;-67
2023/07/21 05:31:58;;;;;;;2.47;1.85;;;14.10;99.90;;;;;;5078070;28;20043;-66
2023/07/21 05:34:24;;;;;;;;;;;14.10;99.90;;;;;;5076233;28;20042;-66
2023/07/21 05:36:50;;;;;;;4.15;1.52;;;14.10;99.90;;;;;;5072536;28;19959;-67
2023/07/21 05:39:16;;;;;;;;;;;14.10;99.90;;;;;;5073941;28;20413;-67
2023/07/21 05:41:41;;;;;;;4.40;1.50;;;14.10;99.90;;;;;;5080546;28;19927;-66
2023/07/21 05:44:08;;;;;;;;;;;14.10;99.90;;;;;;5068665;28;20036;-66
2023/07/21 05:46:34;;;;;;;1.53;1.13;;;14.10;99.90;;;;;;5079162;28;19930;-67
2023/07/21 05:48:59;;;;;;;2.97;1.80;;;14.20;99.90;;;;;;5077975;28;20028;-67
2023/07/21 05:51:25;;;;;;;;;;;14.20;99.90;;;;;;5065724;28;20047;-67
2023/07/21 05:53:50;;;;;;;3.03;1.65;;;14.30;99.90;;;;;;5069803;28;19970;-67
2023/07/21 05:56:16;;;;;;;;;;;14.30;99.90;;;;;;5084099;28;20071;-64
2023/07/21 05:58:41;;;;;;;2.28;1.50;;;14.30;99.90;;;;;;5072416;28;20290;-67
2023/07/21 06:01:10;;;;;;;;;;;14.30;99.90;;;;;;5062553;28;20064;-65
2023/07/21 06:03:37;;;;;;;3.17;1.65;;;14.30;99.90;;;;;;5066407;28;19966;-65
2023/07/21 06:06:03;;;;;;;2.30;1.77;;;14.40;99.90;;;;;;5072655;28;20048;-64
2023/07/21 06:08:30;;;;;;;2.55;1.70;;;14.40;99.90;;;;;;5083764;28;20111;-66
2023/07/21 06:11:00;;;;;;;1.98;1.40;;;14.50;99.90;;;;;;5063401;28;20497;-65
2023/07/21 06:13:29;;;;;;;5.40;2.10;;;14.50;99.90;;;;;;5073529;28;20059;-65
2023/07/21 06:15:56;;;;;;;2.97;2.00;;;14.60;99.90;;;;;;5064697;28;20674;-63
2023/07/21 06:18:22;;;;;;;3.63;2.05;;;14.70;99.90;;;;;;5083736;28;20047;-66
2023/07/21 06:20:50;;;;;;;;;;;14.70;99.90;;;;;;5074599;28;20036;-67
2023/07/21 06:23:16;;;;;;;1.75;1.48;;;14.80;99.90;;;;;;5075864;28;19916;-66
2023/07/21 06:25:41;;;;;;;;;;;14.90;99.90;;;;;;5073220;28;20454;-68
2023/07/21 06:28:07;;;;;;;3.90;1.80;;;15.00;99.90;;;;;;5071664;28;19921;-67
2023/07/21 06:30:33;;;;;;;;;;;15.10;99.90;;;;;;5059057;28;20040;-66
2023/07/21 06:33:00;;;;;;;3.05;2.00;;;15.10;99.90;;;;;;5060933;28;19961;-67
2023/07/21 06:35:25;;;;;;;1.98;1.58;;;15.20;99.90;;;;;;5070549;28;20047;-66
2023/07/21 06:37:51;;;;;;;;;;;15.30;99.90;;;;;;5067896;28;20032;-68
2023/07/21 06:40:17;;;;;;;4.43;1.65;;;15.20;99.90;;;;;;5071889;28;20004;-68
2023/07/21 06:42:44;;;;;;;2.85;1.65;;;15.30;99.90;;;;;;5074627;28;20040;-67
2023/07/21 06:45:11;;;;;;;4.70;1.85;;;15.30;99.90;;;;;;5069241;28;20100;-66
2023/07/21 06:47:36;;;;;;;;;;;15.30;99.90;;;;;;5071186;28;20442;-68
2023/07/21 06:50:02;;;;;;;1.70;1.40;;;15.30;99.90;;;;;;5071788;28;19919;-67
2023/07/21 06:52:28;;;;;;;;;;;15.30;99.90;;;;;;5074313;28;20070;-67
2023/07/21 06:54:55;;;;;;;2.08;1.50;;;15.30;99.90;;;;;;5063850;28;19920;-66
2023/07/21 06:57:22;;;;;;;2.03;1.70;;;15.30;99.90;;;;;;5066120;28;20056;-68
2023/07/21 06:59:47;;;;;;;;;;;15.30;99.90;;;;;;5065696;28;20040;-65
2023/07/21 07:02:13;;;;;;;3.88;1.55;;;15.30;99.90;;;;;;5080541;28;19998;-66
2023/07/21 07:04:39;;;;;;;;;;;15.30;99.90;;;;;;5066582;22;20044;-69
2023/07/21 07:07:05;;;;;;;5.20;2.03;;;15.20;99.90;;;;;;5079492;28;19965;-67
2023/07/21 07:09:31;;;;;;;;;;;15.30;99.90;;;;;;5082159;28;20044;-69
2023/07/21 07:11:57;;;;;;;3.40;1.83;;;15.30;99.90;;;;;;5071332;28;19920;-69
2023/07/21 07:14:22;;;;;;;3.08;1.77;;;15.20;99.90;;;;;;5061840;28;20048;-67
2023/07/21 07:16:48;;;;;;;;;;;15.20;99.90;;;;;;5054244;28;20046;-68
2023/07/21 07:19:13;;;;;;;2.97;2.15;;;15.30;99.90;;;;;;5059326;28;19974;-68
2023/07/21 07:21:40;;;;;;;5.97;1.70;;;15.30;99.90;;;;;;5061596;28;20602;-69
2023/07/21 07:24:06;;;;;;;3.20;2.13;;;15.30;99.90;;;;;;5063172;28;20051;-68
2023/07/21 07:26:32;;;;;;;;;;;15.30;99.90;;;;;;5063244;28;20048;-69
2023/07/21 07:28:58;;;;;;;4.37;1.87;;;15.30;99.90;;;;;;5064645;28;20551;-68
2023/07/21 07:31:24;;;;;;;2.45;1.50;;;15.30;99.90;;;;;;5067336;28;20032;-69
2023/07/21 07:33:49;;;;;;;;;;;15.30;99.90;;;;;;5080176;28;20040;-68
2023/07/21 07:36:15;;;;;;;2.85;1.42;;;15.40;99.90;;;;;;5067419;28;19967;-68
2023/07/21 07:38:41;;;;;;;3.65;2.03;;;15.40;99.90;;;;;;5066506;28;20113;-69
2023/07/21 07:41:09;;;;;;;;;;;15.40;99.90;;;;;;5064251;28;20114;-68
2023/07/21 07:43:35;;;;;;;2.45;1.73;;;15.40;99.90;;;;;;5069977;28;19924;-68
2023/07/21 07:46:02;;;;;;;3.90;1.98;;;15.50;99.90;;;;;;5058064;28;20467;-68
2023/07/21 07:48:28;;;;;;;2.08;1.70;;;15.50;99.90;;;;;;5064888;28;20116;-69
2023/07/21 07:50:54;;;;;;;;;;;15.50;99.90;;;;;;5066742;28;20119;-69
2023/07/21 07:53:21;;;;;;;3.67;2.20;;;15.50;99.90;;;;;;5066926;28;19927;-69
2023/07/21 07:55:47;;;;;;;3.90;2.08;;;15.40;99.90;;;;;;5067095;28;20044;-69
2023/07/21 07:58:12;;;;;;;;;;;15.40;99.90;;;;;;5060855;28;20079;-69
2023/07/21 08:00:41;;;;;;;4.18;2.38;;;15.50;99.90;;;;;;5058387;28;20411;-69
2023/07/21 08:03:09;;;;;;;2.97;2.20;;;15.50;99.90;;;;;;5064147;28;20033;-68
2023/07/21 08:05:36;;;;;;;3.63;2.28;;;15.60;99.90;;;;;;5062966;28;20114;-69
2023/07/21 08:08:03;;;;;;;3.83;2.30;;;15.60;99.90;;;;;;5056340;28;20048;-67
2023/07/21 08:10:30;;;;;;;4.93;2.40;;;15.70;99.90;;;;;;5065305;28;20125;-69
2023/07/21 08:12:56;;;;;;;2.90;2.13;;;15.70;99.90;;;;;;5065204;28;20075;-68
2023/07/21 08:15:22;;;;;;;4.13;1.40;;;15.80;99.90;;;;;;5065304;28;20040;-68
2023/07/21 08:17:49;;;;;;;5.70;2.15;;;15.90;99.90;;;;;;5059644;28;20097;-70
2023/07/21 08:20:16;;;;;;;3.25;2.05;;;16.00;99.90;;;;;;5070957;28;20135;-68
2023/07/21 08:22:42;;;;;;;2.97;2.00;;;16.20;99.90;;;;;;5070579;28;20041;-67
2023/07/21 08:25:07;;;;;;;;;;;16.30;99.90;;;;;;5072315;28;20094;-66
2023/07/21 08:27:36;;;;;;;5.35;2.47;;;16.40;99.90;;;;;;5072088;28;19920;-68
2023/07/21 08:30:02;;;;;;;4.75;2.10;;;16.70;99.90;;;;;;5075990;28;20035;-68
2023/07/21 08:32:28;;;;;;;3.47;2.08;;;17.00;99.90;;;;;;5084576;28;20039;-66
2023/07/21 08:34:57;;;;;;;;;;;17.30;99.90;;;;;;5076613;28;20044;-68
2023/07/21 08:37:22;;;;;;;5.75;2.83;;;17.50;99.90;;;;;;5066941;28;19977;-68
2023/07/21 08:39:48;;;;;;;;;;;17.70;99.90;;;;;;5066271;28;20541;-69
2023/07/21 08:42:14;;;;;;;2.53;1.60;;;17.90;99.90;;;;;;5073496;28;19920;-69
2023/07/21 08:44:41;;;;;;;3.03;2.10;;;18.20;99.90;;;;;;5087121;28;20036;-70
2023/07/21 08:47:07;;;;;;;2.95;2.30;;;18.30;99.90;;;;;;5064057;28;20139;-69
2023/07/21 08:49:33;;;;;;;;;;;18.40;99.90;;;;;;5043622;28;20431;-67
2023/07/21 08:51:58;;;;;;;3.10;2.08;;;18.30;99.90;;;;;;5052260;28;19947;-68
2023/07/21 08:54:24;;;;;;;2.80;1.90;;;18.20;99.90;;;;;;5067067;28;20155;-67
2023/07/21 08:56:50;;;;;;;4.13;1.90;;;18.80;99.90;;;;;;5064858;28;20056;-68
2023/07/21 08:59:18;;;;;;;3.85;2.33;;;19.20;99.90;;;;;;5064014;28;20043;-69
2023/07/21 09:01:44;;;;;;;2.90;1.80;;;19.50;98.90;;;;;;5062454;28;20868;-68
2023/07/21 09:04:19;;;;;;;;;;;19.30;99.80;;;;;;5065216;28;20177;-69
2023/07/21 09:06:52;;;;;;;5.93;1.60;;;19.40;98.90;;;;;;5060578;28;19964;-68
2023/07/21 09:09:19;;;;;;;2.75;1.80;;;19.40;99.90;;;;;;5060390;28;20102;-68
2023/07/21 09:11:46;;;;;;;2.40;1.80;;;19.40;99.90;;;;;;5060538;28;20051;-68
2023/07/21 09:14:11;;;;;;;5.35;1.60;;;19.20;99.40;;;;;;5063350;28;20044;-69
2023/07/21 09:16:41;;;;;;;;;;;19.10;99.30;;;;;;5063430;28;20046;-70
2023/07/21 09:19:07;;;;;;;6.93;2.13;;;19.00;98.20;;;;;;5063687;28;19920;-68
2023/07/21 09:21:35;;;;;;;2.42;1.85;;;19.10;97.50;;;;;;5065179;28;20095;-67
2023/07/21 09:24:08;;;;;;;3.45;2.30;;;19.00;99.60;;;;;;5064759;28;20750;-68
2023/07/21 09:26:34;;;;;;;4.47;1.40;;;18.50;98.30;;;;;;5064661;28;20040;-69
2023/07/21 09:29:00;;;;;;;;;;;18.60;99.90;;;;;;5064325;28;20051;-69
2023/07/21 09:31:34;;;;;;;2.20;1.85;;;18.60;99.90;;;;;;5060913;28;20288;-68
2023/07/21 09:34:09;;;;;;;3.40;1.90;;;18.50;99.90;;;;;;5064088;28;20032;-68
2023/07/21 09:36:35;;;;;;;2.97;1.90;;;18.40;99.90;;;;;;5064340;28;20068;-69
2023/07/21 09:39:04;;;;;;;4.05;2.20;;;18.40;99.90;;;;;;5063051;28;20424;-69
2023/07/21 09:41:34;;;;;;;3.28;2.22;;;18.40;99.90;;;;;;5068579;28;20036;-68
2023/07/21 09:44:00;;;;;;;5.50;2.72;;;18.40;99.90;;;;;;5067218;28;20404;-68
2023/07/21 09:46:26;;;;;;;4.75;2.85;;;18.40;99.90;;;;;;5065134;28;20056;-69
2023/07/21 09:48:53;;;;;;;;;;;18.40;97.40;;;;;;5062167;28;20044;-70
2023/07/21 09:51:20;;;;;;;3.55;2.05;;;18.50;98.80;;;;;;5064594;28;19927;-68
2023/07/21 09:53:49;;;;;;;2.95;2.20;;;18.50;99.40;;;;;;5063721;28;20547;-68
2023/07/21 09:56:19;;;;;;;3.35;2.38;;;18.60;98.70;;;;;;5063917;28;20110;-64
2023/07/21 09:58:53;;;;;;;4.80;3.13;;;18.80;96.90;;;;;;5063928;28;20051;-67
2023/07/21 10:01:19;;;;;;;2.28;1.98;;;18.70;97.90;;;;;;5059814;28;20514;-67
2023/07/21 10:03:45;;;;;;;3.13;2.38;;;18.80;98.20;;;;;;5056191;28;20045;-66
2023/07/21 10:06:11;;;;;;;;;;;18.80;98.30;;;;;;5063158;28;20138;-68
2023/07/21 10:08:38;;;;;;;5.50;2.63;;;18.80;98.10;;;;;;5063811;28;19927;-68
2023/07/21 10:11:07;;;;;;;6.43;2.80;;;18.80;98.90;;;;;;5058172;28;20123;-69
2023/07/21 10:13:33;;;;;;;3.72;2.58;;;18.80;99.30;;;;;;5061446;28;20809;-66
2023/07/21 10:16:09;;;;;;;3.08;2.50;;;18.50;99.20;;;;;;5059672;28;20086;-67
2023/07/21 10:19:01;;;;;;;5.57;2.85;;;18.50;99.90;;;;;;5056572;28;20492;-70
2023/07/21 10:21:31;;;;;;;2.97;2.38;;;18.50;99.90;;;;;;5045978;28;20054;-68
2023/07/21 10:24:00;;;;;;;7.63;2.97;;;18.40;97.90;;;;;;5070517;28;20515;-68
2023/07/21 10:26:25;;;;;;;5.00;2.60;;;18.20;99.60;;;;;;5070862;28;20093;-68
2023/07/21 10:28:53;;;;;;;;;;;18.10;99.90;;;;;;5072069;28;20036;-66
2023/07/21 10:31:25;;;;;;;3.75;2.80;;;18.20;99.90;;;;;;5070363;28;20406;-67
2023/07/21 10:34:06;;;;;;;4.15;3.00;;;18.30;97.80;;;;;;5063908;28;20097;-68
2023/07/21 10:36:40;;;;;;;5.07;3.38;;;18.30;98.30;;;;;;5057955;28;20115;-68
2023/07/21 10:39:11;;;;;;;3.30;2.50;;;18.20;99.90;;;;;;5053667;28;20094;-67
2023/07/21 10:41:40;;;;;;;5.45;2.88;;;18.30;99.40;;;;;;5057680;28;20047;-68
2023/07/21 10:44:08;;;;;;;3.78;2.88;;;18.40;98.80;;;;;;5056146;28;20041;-68
2023/07/21 10:46:43;;;;;;;3.72;2.70;;;18.40;97.60;;;;;;5057744;28;20072;-68
2023/07/21 10:49:11;;;;;;;3.42;2.97;;;18.60;97.90;;;;;;5057118;28;20051;-68
2023/07/21 10:51:41;;;;;;;4.82;3.15;;;18.50;96.60;;;;;;5055545;28;20033;-68
2023/07/21 10:54:08;;;;;;;3.95;2.30;;;18.60;97.40;;;;;;5060461;28;20573;-68
2023/07/21 10:56:46;;;;;;;4.03;2.58;;;18.90;98.00;;;;;;5056628;28;20044;-67
2023/07/21 10:59:13;;;;;;;3.13;2.30;;;19.10;96.40;;;;;;5055775;28;20059;-68
2023/07/21 11:01:46;;;;;;;3.75;1.88;;;19.10;96.40;;;;;;5055175;28;20484;-68
2023/07/21 11:04:16;;;;;;;3.28;2.33;;;19.00;95.20;;;;;;5052425;28;20556;-68
2023/07/21 11:06:43;;;;;;;4.72;2.70;;;18.70;95.00;;;;;;5052722;28;20041;-67
2023/07/21 11:09:14;;;;;;;3.22;2.22;;;18.60;96.50;;;;;;5064527;28;20038;-68
2023/07/21 11:11:41;;;;;;;3.55;2.10;;;18.50;96.30;;;;;;5058112;28;20749;-67
2023/07/21 11:14:14;;;;;;;3.60;2.10;;;18.50;97.70;;;;;;5058884;28;20109;-68
2023/07/21 11:16:57;;;;;;;3.97;2.78;;;18.40;98.40;;;;;;5063911;28;20519;-68
2023/07/21 11:19:25;;;;;;;4.32;2.58;;;18.40;97.70;;;;;;5051654;28;20674;-68
2023/07/21 11:21:51;;;;;;;3.67;2.40;;;18.30;97.40;;;;;;5065958;28;20045;-67
2023/07/21 11:24:19;;;;;;;2.95;2.72;;;18.30;98.20;;;;;;5067220;28;20431;-66
2023/07/21 11:26:46;;;;;;;4.35;2.35;;;18.20;97.60;;;;;;5067524;28;20127;-67
2023/07/21 11:29:12;;;;;;;4.22;2.95;;;18.20;98.10;;;;;;5069073;28;20328;-67
2023/07/21 11:31:38;;;;;;;2.90;2.47;;;18.20;97.80;;;;;;5065847;28;20132;-68
2023/07/21 11:34:16;;;;;;;;;;;18.20;98.00;;;;;;5064436;28;20119;-67
2023/07/21 11:36:42;;;;;;;3.25;2.47;;;18.20;97.70;;;;;;5067202;28;19974;-65
2023/07/21 11:39:10;;;;;;;;;;;18.60;98.70;;;;;;5066289;28;20408;-67
2023/07/21 11:41:44;;;;;;;2.85;2.38;;;18.90;99.90;;;;;;5061384;28;19931;-67
2023/07/21 11:44:11;;;;;;;3.15;2.20;;;19.10;99.00;;;;;;5057949;28;20098;-67
2023/07/21 11:46:38;;;;;;;4.28;2.45;;;19.00;96.20;;;;;;5065684;28;20574;-66
2023/07/21 11:49:10;;;;;;;3.05;2.30;;;18.90;97.00;;;;;;5060483;28;20044;-68
2023/07/21 11:51:46;;;;;;;6.55;2.42;;;18.80;98.00;;;;;;5057521;28;20052;-68
2023/07/21 11:54:19;;;;;;;6.13;2.47;;;18.70;98.60;;;;;;5062390;28;20045;-68
2023/07/21 11:56:45;;;;;;;11.75;2.85;;;18.60;99.90;;;;;;5043910;28;20057;-67
2023/07/21 11:59:11;;;;;;;7.47;2.30;;;18.50;99.90;;;;;;5060802;28;20049;-68
2023/07/21 12:01:38;;;;;;;;;;;18.40;99.90;;;;;;5063030;28;20098;-68
2023/07/21 12:04:05;;;;;;;4.80;2.75;;;18.30;99.90;;;;;;5056442;28;19956;-67
2023/07/21 12:06:31;;;;;;;3.47;2.22;;;18.10;99.90;;;;;;5057704;28;20056;-66
2023/07/21 12:08:56;;;;;;;;;;;18.00;99.90;;;;;;5066291;28;20032;-67
2023/07/21 12:11:22;;;;;;;2.67;2.38;;;17.80;99.90;;;;;;5060196;28;19966;-66
2023/07/21 12:13:47;;;;;;;6.95;3.05;;;17.80;99.90;;;;;;5075408;28;20036;-66
2023/07/21 12:16:13;;;;;;;3.95;2.60;;;17.60;99.90;;;;;;5061456;28;20443;-66
2023/07/21 12:18:40;;;;;;;4.32;2.80;;;17.60;99.90;;;;;;5071606;28;20056;-66
2023/07/21 12:21:09;;;;;;;4.63;3.00;;;17.70;99.90;;;;;;5073173;28;20407;-66
2023/07/21 12:23:36;;;;;;;4.25;3.15;;;17.70;99.90;;;;;;5069448;28;20070;-67
2023/07/21 12:26:02;;;;;;;4.63;3.35;;;17.70;99.90;;;;;;5057875;28;20049;-66
2023/07/21 12:28:28;;;;;;;;;;;17.70;99.90;;;;;;5061030;28;20039;-67
2023/07/21 12:30:53;;;;;;;3.20;2.70;;;17.60;99.90;;;;;;5074170;28;19920;-67
2023/07/21 12:33:19;;;;;;;9.55;2.72;;;17.70;99.90;;;;;;5076842;28;20032;-67
2023/07/21 12:35:45;;;;;;;;;;;17.80;99.90;;;;;;5066420;28;20051;-67
2023/07/21 12:38:11;;;;;;;3.57;2.23;;;17.90;99.90;;;;;;5064853;28;19916;-67
2023/07/21 12:40:37;;;;;;;;;;;17.90;99.90;;;;;;5065161;28;20838;-67
2023/07/21 12:43:04;;;;;;;3.78;2.47;;;18.00;99.90;;;;;;5069030;28;20007;-66
2023/07/21 12:45:29;;;;;;;8.38;2.55;;;18.00;99.90;;;;;;5064431;28;20096;-68
2023/07/21 12:47:55;;;;;;;;;;;18.10;99.90;;;;;;5063583;28;20124;-67
2023/07/21 12:50:21;;;;;;;3.25;2.70;;;18.00;99.90;;;;;;5075538;28;19927;-67
2023/07/21 12:52:46;;;;;;;5.40;2.83;;;18.00;99.90;;;;;;5069430;28;20096;-66
2023/07/21 12:55:12;;;;;;;4.13;2.83;;;18.10;99.90;;;;;;5057328;28;20041;-65
2023/07/21 12:57:38;;;;;;;4.05;2.67;;;18.00;99.90;;;;;;5071811;28;20450;-68
2023/07/21 13:00:04;;;;;;;5.70;2.90;;;18.00;99.90;;;;;;5072470;28;20040;-68
2023/07/21 13:02:32;;;;;;;3.65;3.03;;;18.10;99.90;;;;;;5068773;28;20048;-67